createdAt,value
2016-10-01T00:01:28.871Z,0
2016-10-01T00:06:27.888Z,0
2016-10-01T00:11:28.718Z,0
2016-10-01T00:16:28.664Z,0
2016-10-01T00:21:28.592Z,0
2016-10-01T00:26:28.205Z,0
2016-10-01T00:31:28.437Z,0
2016-10-01T00:36:28.054Z,0
2016-10-01T00:41:27.690Z,0
2016-10-01T00:46:28.208Z,0
2016-10-01T00:51:27.838Z,0
2016-10-01T00:56:27.756Z,0
2016-10-01T01:01:27.998Z,0
2016-10-01T01:06:27.928Z,0
2016-10-01T01:11:27.543Z,0
2016-10-01T01:16:27.773Z,0
2016-10-01T01:21:27.402Z,0
2016-10-01T01:26:27.627Z,0
2016-10-01T01:31:27.244Z,0
2016-10-01T01:36:27.178Z,0
2016-10-01T01:41:27.098Z,0
2016-10-01T01:46:27.316Z,0
2016-10-01T01:51:26.944Z,0
2016-10-01T01:56:26.569Z,0
2016-10-01T02:01:27.102Z,0
2016-10-01T02:06:26.724Z,0
2016-10-01T02:11:26.652Z,0
2016-10-01T02:16:26.896Z,0
2016-10-01T02:21:26.822Z,0
2016-10-01T02:26:26.446Z,0
2016-10-01T02:31:26.360Z,0
2016-10-01T02:36:25.680Z,0
2016-10-01T02:41:26.516Z,0
2016-10-01T02:46:26.146Z,0
2016-10-01T02:51:26.070Z,0
2016-10-01T02:56:26.294Z,0
2016-10-01T03:01:26.244Z,0
2016-10-01T03:06:25.850Z,0
2016-10-01T03:11:25.777Z,0
2016-10-01T03:16:26.004Z,0
2016-10-01T03:21:25.928Z,0
2016-10-01T03:26:25.559Z,0
2016-10-01T03:31:25.175Z,0
2016-10-01T03:36:25.405Z,0
2016-10-01T03:41:25.342Z,0
2016-10-01T03:46:25.570Z,0
2016-10-01T03:51:25.495Z,0
2016-10-01T03:56:25.124Z,0
2016-10-01T04:01:24.735Z,0
2016-10-01T04:06:24.672Z,0
2016-10-01T04:11:25.218Z,0
2016-10-01T04:16:24.834Z,0
2016-10-01T04:21:25.061Z,0
2016-10-01T04:26:24.985Z,0
2016-10-01T04:31:24.311Z,0
2016-10-01T04:36:24.547Z,0
2016-10-01T04:41:24.479Z,0
2016-10-01T04:46:24.721Z,0
2016-10-01T04:51:24.012Z,0
2016-10-01T04:56:24.259Z,0
2016-10-01T05:01:24.480Z,0
2016-10-01T05:06:23.828Z,0
2016-10-01T05:11:24.039Z,0
2016-10-01T05:16:24.268Z,0
2016-10-01T05:21:24.194Z,0
2016-10-01T05:26:24.127Z,0
2016-10-01T05:31:24.055Z,0
2016-10-01T05:36:23.985Z,0
2016-10-01T05:41:23.611Z,0
2016-10-01T05:46:23.833Z,0
2016-10-01T05:51:22.861Z,0
2016-10-01T05:56:23.700Z,5
2016-10-01T06:01:23.617Z,5
2016-10-01T06:06:23.556Z,10
2016-10-01T06:11:23.485Z,10
2016-10-01T06:16:22.818Z,10
2016-10-01T06:21:23.341Z,15
2016-10-01T06:26:22.672Z,20
2016-10-01T06:31:23.213Z,30
2016-10-01T06:36:22.828Z,45
2016-10-01T06:41:22.751Z,70
2016-10-01T06:46:23.000Z,100
2016-10-01T06:51:22.316Z,115
2016-10-01T06:56:22.556Z,90
2016-10-01T07:01:22.479Z,95
2016-10-01T07:06:22.412Z,130
2016-10-01T07:11:22.041Z,130
2016-10-01T07:16:21.971Z,135
2016-10-01T07:21:22.520Z,150
2016-10-01T07:26:21.838Z,130
2016-10-01T07:31:22.394Z,110
2016-10-01T07:36:22.325Z,100
2016-10-01T07:41:22.265Z,100
2016-10-01T07:46:21.897Z,110
2016-10-01T07:51:21.525Z,115
2016-10-01T07:56:22.090Z,175
2016-10-01T08:01:21.101Z,205
2016-10-01T08:06:21.658Z,230
2016-10-01T08:11:21.581Z,250
2016-10-01T08:16:21.533Z,200
2016-10-01T08:21:21.477Z,200
2016-10-01T08:26:21.420Z,260
2016-10-01T08:31:21.672Z,245
2016-10-01T08:36:20.705Z,240
2016-10-01T08:41:20.954Z,225
2016-10-01T08:46:21.206Z,260
2016-10-01T08:51:21.460Z,345
2016-10-01T08:56:20.804Z,395
2016-10-01T09:01:21.357Z,375
2016-10-01T09:06:21.004Z,405
2016-10-01T09:11:20.647Z,360
2016-10-01T09:16:20.907Z,400
2016-10-01T09:21:21.167Z,330
2016-10-01T09:26:20.515Z,260
2016-10-01T09:31:21.071Z,760
2016-10-01T09:36:21.028Z,1080
2016-10-01T09:41:20.667Z,530
2016-10-01T09:46:20.639Z,290
2016-10-01T09:51:20.593Z,220
2016-10-01T09:56:20.259Z,270
2016-10-01T10:01:20.522Z,285
2016-10-01T10:06:20.475Z,310
2016-10-01T10:11:20.112Z,430
2016-10-01T10:16:21.051Z,375
2016-10-01T10:21:20.339Z,330
2016-10-01T10:26:20.622Z,395
2016-10-01T10:31:20.536Z,285
2016-10-01T10:36:20.490Z,320
2016-10-01T10:41:19.832Z,265
2016-10-01T10:46:20.096Z,325
2016-10-01T10:51:19.752Z,400
2016-10-01T10:56:20.022Z,380
2016-10-01T11:01:19.678Z,345
2016-10-01T11:06:20.243Z,320
2016-10-01T11:11:19.902Z,295
2016-10-01T11:16:19.849Z,305
2016-10-01T11:21:19.820Z,365
2016-10-01T11:26:19.472Z,330
2016-10-01T11:31:19.436Z,330
2016-10-01T11:36:19.704Z,290
2016-10-01T11:41:19.671Z,285
2016-10-01T11:46:19.641Z,285
2016-10-01T11:51:19.596Z,315
2016-10-01T11:56:19.876Z,315
2016-10-01T12:01:19.222Z,280
2016-10-01T12:06:19.493Z,320
2016-10-01T12:11:19.469Z,285
2016-10-01T12:16:19.413Z,255
2016-10-01T12:21:19.380Z,225
2016-10-01T12:26:19.026Z,255
2016-10-01T12:31:19.288Z,275
2016-10-01T12:36:19.560Z,220
2016-10-01T12:41:19.212Z,165
2016-10-01T12:46:18.878Z,195
2016-10-01T12:51:19.456Z,235
2016-10-01T12:56:19.122Z,235
2016-10-01T13:01:18.453Z,250
2016-10-01T13:06:19.340Z,225
2016-10-01T13:11:18.364Z,260
2016-10-01T13:16:18.636Z,260
2016-10-01T13:21:18.907Z,255
2016-10-01T13:26:19.165Z,220
2016-10-01T13:31:18.525Z,180
2016-10-01T13:36:18.803Z,220
2016-10-01T13:41:18.133Z,225
2016-10-01T13:46:19.011Z,195
2016-10-01T13:51:18.973Z,180
2016-10-01T13:56:18.946Z,165
2016-10-01T14:01:18.617Z,160
2016-10-01T14:06:18.269Z,150
2016-10-01T14:11:18.227Z,155
2016-10-01T14:16:18.793Z,160
2016-10-01T14:21:18.732Z,150
2016-10-01T14:26:18.395Z,190
2016-10-01T14:31:18.361Z,185
2016-10-01T14:36:17.708Z,175
2016-10-01T14:41:18.605Z,180
2016-10-01T14:46:18.255Z,170
2016-10-01T14:51:18.225Z,130
2016-10-01T14:56:17.882Z,115
2016-10-01T15:01:18.478Z,150
2016-10-01T15:06:18.405Z,125
2016-10-01T15:11:18.070Z,115
2016-10-01T15:16:18.321Z,135
2016-10-01T15:21:17.978Z,105
2016-10-01T15:26:17.955Z,90
2016-10-01T15:31:17.907Z,90
2016-10-01T15:36:18.171Z,85
2016-10-01T15:41:17.827Z,75
2016-10-01T15:46:17.787Z,70
2016-10-01T15:51:17.752Z,70
2016-10-01T15:56:17.406Z,65
2016-10-01T16:01:17.681Z,60
2016-10-01T16:06:17.357Z,60
2016-10-01T16:11:17.915Z,55
2016-10-01T16:16:17.877Z,50
2016-10-01T16:21:17.524Z,50
2016-10-01T16:26:17.475Z,45
2016-10-01T16:31:16.841Z,35
2016-10-01T16:36:17.806Z,30
2016-10-01T16:41:17.374Z,30
2016-10-01T16:46:17.327Z,20
2016-10-01T16:51:16.987Z,15
2016-10-01T16:56:17.241Z,15
2016-10-01T17:01:17.494Z,10
2016-10-01T17:06:17.132Z,5
2016-10-01T17:11:17.087Z,5
2016-10-01T17:16:16.737Z,0
2016-10-01T17:21:16.407Z,0
2016-10-01T17:26:16.642Z,0
2016-10-01T17:31:16.896Z,0
2016-10-01T17:36:16.241Z,0
2016-10-01T17:41:17.103Z,0
2016-10-01T17:46:17.046Z,0
2016-10-01T17:51:16.696Z,0
2016-10-01T17:56:16.640Z,0
2016-10-01T18:01:16.290Z,0
2016-10-01T18:06:16.550Z,0
2016-10-01T18:11:16.808Z,0
2016-10-01T18:16:16.445Z,0
2016-10-01T18:21:15.780Z,0
2016-10-01T18:26:16.326Z,0
2016-10-01T18:31:16.284Z,0
2016-10-01T18:36:16.232Z,0
2016-10-01T18:41:16.176Z,0
2016-10-01T18:46:15.510Z,0
2016-10-01T18:51:15.757Z,0
2016-10-01T18:56:16.332Z,0
2016-10-01T19:01:17.259Z,0
2016-10-01T19:06:15.622Z,0
2016-10-01T19:11:15.868Z,0
2016-10-01T19:16:16.099Z,0
2016-10-01T19:21:15.438Z,0
2016-10-01T19:26:15.389Z,0
2016-10-01T19:31:15.635Z,0
2016-10-01T19:36:15.274Z,0
2016-10-01T19:41:15.519Z,0
2016-10-01T19:46:15.476Z,0
2016-10-01T19:51:15.405Z,0
2016-10-01T19:56:15.659Z,0
2016-10-01T20:01:15.622Z,0
2016-10-01T20:06:15.253Z,0
2016-10-01T20:11:14.561Z,0
2016-10-01T20:16:15.452Z,0
2016-10-01T20:21:15.071Z,0
2016-10-01T20:26:15.313Z,0
2016-10-01T20:31:15.260Z,0
2016-10-01T20:36:15.190Z,0
2016-10-01T20:41:14.534Z,0
2016-10-01T20:46:14.785Z,0
2016-10-01T20:51:14.704Z,0
2016-10-01T20:56:14.364Z,0
2016-10-01T21:01:14.302Z,0
2016-10-01T21:06:13.912Z,0
2016-10-01T21:11:14.783Z,0
2016-10-01T21:16:13.801Z,0
2016-10-01T21:21:14.353Z,0
2016-10-01T21:26:14.315Z,0
2016-10-01T21:31:14.232Z,0
2016-10-01T21:36:13.886Z,0
2016-10-01T21:41:14.119Z,0
